sensor_id;sensor_type;location;lat;lon;timestamp;temperature;humidity
1297;DHT22;641;48.492;9.184;2023-04-25T00:01:55;9.10;99.90
1297;DHT22;641;48.492;9.184;2023-04-25T00:04:22;9.20;99.90
1297;DHT22;641;48.492;9.184;2023-04-25T00:06:47;9.20;99.90
1297;DHT22;641;48.492;9.184;2023-04-25T00:09:13;9.20;99.90
1297;DHT22;641;48.492;9.184;2023-04-25T00:11:40;9.30;99.90
1297;DHT22;641;48.492;9.184;2023-04-25T00:14:05;9.30;99.90
1297;DHT22;641;48.492;9.184;2023-04-25T00:16:32;9.40;99.90
1297;DHT22;641;48.492;9.184;2023-04-25T00:19:01;9.40;99.90
1297;DHT22;641;48.492;9.184;2023-04-25T00:21:27;9.50;99.90
1297;DHT22;641;48.492;9.184;2023-04-25T00:23:54;9.40;99.90
1297;DHT22;641;48.492;9.184;2023-04-25T00:26:19;9.40;99.90
1297;DHT22;641;48.492;9.184;2023-04-25T00:28:46;9.60;99.90
1297;DHT22;641;48.492;9.184;2023-04-25T00:31:12;9.60;99.90
1297;DHT22;641;48.492;9.184;2023-04-25T00:33:38;9.60;99.90
1297;DHT22;641;48.492;9.184;2023-04-25T00:36:03;9.60;99.90
1297;DHT22;641;48.492;9.184;2023-04-25T00:38:29;9.60;99.90
1297;DHT22;641;48.492;9.184;2023-04-25T00:40:54;9.60;99.90
1297;DHT22;641;48.492;9.184;2023-04-25T00:43:21;9.50;99.90
1297;DHT22;641;48.492;9.184;2023-04-25T00:45:47;9.60;99.90
1297;DHT22;641;48.492;9.184;2023-04-25T00:48:14;9.60;99.90
1297;DHT22;641;48.492;9.184;2023-04-25T00:50:39;9.40;99.90
1297;DHT22;641;48.492;9.184;2023-04-25T00:53:06;9.50;99.90
1297;DHT22;641;48.492;9.184;2023-04-25T00:55:32;9.50;99.90
1297;DHT22;641;48.492;9.184;2023-04-25T00:58:00;9.60;99.90
1297;DHT22;641;48.492;9.184;2023-04-25T01:00:25;9.70;99.90
1297;DHT22;641;48.492;9.184;2023-04-25T01:02:51;9.50;99.90
1297;DHT22;641;48.492;9.184;2023-04-25T01:05:17;9.50;99.90
1297;DHT22;641;48.492;9.184;2023-04-25T01:07:44;9.50;99.90
1297;DHT22;641;48.492;9.184;2023-04-25T01:10:10;9.60;99.90
1297;DHT22;641;48.492;9.184;2023-04-25T01:12:36;9.60;99.90
1297;DHT22;641;48.492;9.184;2023-04-25T01:15:01;9.50;99.90
1297;DHT22;641;48.492;9.184;2023-04-25T01:17:28;9.50;99.90
1297;DHT22;641;48.492;9.184;2023-04-25T01:19:54;9.50;99.90
1297;DHT22;641;48.492;9.184;2023-04-25T01:22:20;9.50;99.90
1297;DHT22;641;48.492;9.184;2023-04-25T01:24:46;9.40;99.90
1297;DHT22;641;48.492;9.184;2023-04-25T01:27:12;9.30;99.90
1297;DHT22;641;48.492;9.184;2023-04-25T01:29:37;9.50;99.90
1297;DHT22;641;48.492;9.184;2023-04-25T01:32:04;9.50;99.90
1297;DHT22;641;48.492;9.184;2023-04-25T01:34:30;9.40;99.90
1297;DHT22;641;48.492;9.184;2023-04-25T01:36:56;9.40;99.90
1297;DHT22;641;48.492;9.184;2023-04-25T01:39:24;9.50;99.90
1297;DHT22;641;48.492;9.184;2023-04-25T01:41:50;9.40;99.90
1297;DHT22;641;48.492;9.184;2023-04-25T01:44:15;9.40;99.90
1297;DHT22;641;48.492;9.184;2023-04-25T01:46:41;9.30;99.90
1297;DHT22;641;48.492;9.184;2023-04-25T01:49:07;9.40;99.90
1297;DHT22;641;48.492;9.184;2023-04-25T01:51:33;9.30;99.90
1297;DHT22;641;48.492;9.184;2023-04-25T01:53:59;9.40;99.90
1297;DHT22;641;48.492;9.184;2023-04-25T01:56:24;9.40;99.90
1297;DHT22;641;48.492;9.184;2023-04-25T01:58:51;9.40;99.90
1297;DHT22;641;48.492;9.184;2023-04-25T02:01:16;9.30;99.90
1297;DHT22;641;48.492;9.184;2023-04-25T02:03:42;9.50;99.90
1297;DHT22;641;48.492;9.184;2023-04-25T02:06:08;9.30;99.90
1297;DHT22;641;48.492;9.184;2023-04-25T02:08:33;9.30;99.90
1297;DHT22;641;48.492;9.184;2023-04-25T02:10:59;9.40;99.90
1297;DHT22;641;48.492;9.184;2023-04-25T02:13:24;9.50;99.90
1297;DHT22;641;48.492;9.184;2023-04-25T02:15:50;9.40;99.90
1297;DHT22;641;48.492;9.184;2023-04-25T02:18:16;9.30;99.90
1297;DHT22;641;48.492;9.184;2023-04-25T02:20:42;9.40;99.90
1297;DHT22;641;48.492;9.184;2023-04-25T02:23:08;9.40;99.90
1297;DHT22;641;48.492;9.184;2023-04-25T02:25:33;9.40;99.90
1297;DHT22;641;48.492;9.184;2023-04-25T02:27:59;9.30;99.90
1297;DHT22;641;48.492;9.184;2023-04-25T02:30:24;9.30;99.90
1297;DHT22;641;48.492;9.184;2023-04-25T02:32:50;9.30;99.90
1297;DHT22;641;48.492;9.184;2023-04-25T02:35:16;9.40;99.90
1297;DHT22;641;48.492;9.184;2023-04-25T02:37:42;9.30;99.90
1297;DHT22;641;48.492;9.184;2023-04-25T02:40:08;9.30;99.90
1297;DHT22;641;48.492;9.184;2023-04-25T02:42:34;9.20;99.90
1297;DHT22;641;48.492;9.184;2023-04-25T02:44:59;9.30;99.90
1297;DHT22;641;48.492;9.184;2023-04-25T02:47:25;9.10;99.90
1297;DHT22;641;48.492;9.184;2023-04-25T02:49:51;9.30;99.90
1297;DHT22;641;48.492;9.184;2023-04-25T02:52:17;9.20;99.90
1297;DHT22;641;48.492;9.184;2023-04-25T02:54:42;9.20;99.90
1297;DHT22;641;48.492;9.184;2023-04-25T02:57:08;9.20;99.90
1297;DHT22;641;48.492;9.184;2023-04-25T02:59:34;9.20;99.90
1297;DHT22;641;48.492;9.184;2023-04-25T03:01:59;9.20;99.90
1297;DHT22;641;48.492;9.184;2023-04-25T03:04:25;9.20;99.90
1297;DHT22;641;48.492;9.184;2023-04-25T03:06:51;9.10;99.90
1297;DHT22;641;48.492;9.184;2023-04-25T03:09:17;9.10;99.90
1297;DHT22;641;48.492;9.184;2023-04-25T03:11:44;9.00;99.90
1297;DHT22;641;48.492;9.184;2023-04-25T03:14:10;9.00;99.90
1297;DHT22;641;48.492;9.184;2023-04-25T03:16:36;9.00;99.90
1297;DHT22;641;48.492;9.184;2023-04-25T03:19:02;9.00;99.90
1297;DHT22;641;48.492;9.184;2023-04-25T03:21:28;8.80;99.90
1297;DHT22;641;48.492;9.184;2023-04-25T03:23:54;8.80;99.90
1297;DHT22;641;48.492;9.184;2023-04-25T03:26:20;9.00;99.90
1297;DHT22;641;48.492;9.184;2023-04-25T03:28:45;9.00;99.90
1297;DHT22;641;48.492;9.184;2023-04-25T03:31:11;9.00;99.90
1297;DHT22;641;48.492;9.184;2023-04-25T03:33:36;9.00;99.90
1297;DHT22;641;48.492;9.184;2023-04-25T03:36:02;8.90;99.90
1297;DHT22;641;48.492;9.184;2023-04-25T03:38:28;9.00;99.90
1297;DHT22;641;48.492;9.184;2023-04-25T03:40:54;9.00;99.90
1297;DHT22;641;48.492;9.184;2023-04-25T03:43:21;9.10;99.90
1297;DHT22;641;48.492;9.184;2023-04-25T03:45:47;9.10;99.90
1297;DHT22;641;48.492;9.184;2023-04-25T03:48:12;9.00;99.90
1297;DHT22;641;48.492;9.184;2023-04-25T03:50:38;9.00;99.90
1297;DHT22;641;48.492;9.184;2023-04-25T03:53:03;9.00;99.90
1297;DHT22;641;48.492;9.184;2023-04-25T03:55:29;8.90;99.90
1297;DHT22;641;48.492;9.184;2023-04-25T03:57:55;8.90;99.90
1297;DHT22;641;48.492;9.184;2023-04-25T04:00:20;8.80;99.90
1297;DHT22;641;48.492;9.184;2023-04-25T04:02:46;8.90;99.90
1297;DHT22;641;48.492;9.184;2023-04-25T04:05:12;8.90;99.90
1297;DHT22;641;48.492;9.184;2023-04-25T04:07:38;8.80;99.90
1297;DHT22;641;48.492;9.184;2023-04-25T04:10:09;8.90;99.90
1297;DHT22;641;48.492;9.184;2023-04-25T04:12:35;8.90;99.90
1297;DHT22;641;48.492;9.184;2023-04-25T04:15:02;8.90;99.90
1297;DHT22;641;48.492;9.184;2023-04-25T04:17:29;8.80;99.90
1297;DHT22;641;48.492;9.184;2023-04-25T04:19:54;8.80;99.90
1297;DHT22;641;48.492;9.184;2023-04-25T04:22:20;8.90;99.90
1297;DHT22;641;48.492;9.184;2023-04-25T04:24:45;8.80;99.90
1297;DHT22;641;48.492;9.184;2023-04-25T04:27:12;9.00;99.90
1297;DHT22;641;48.492;9.184;2023-04-25T04:29:40;9.00;99.90
1297;DHT22;641;48.492;9.184;2023-04-25T04:32:06;9.00;99.90
1297;DHT22;641;48.492;9.184;2023-04-25T04:34:35;9.00;99.90
1297;DHT22;641;48.492;9.184;2023-04-25T04:37:01;8.90;99.90
1297;DHT22;641;48.492;9.184;2023-04-25T04:39:27;8.90;99.90
1297;DHT22;641;48.492;9.184;2023-04-25T04:41:53;8.80;99.90
1297;DHT22;641;48.492;9.184;2023-04-25T04:44:18;8.80;99.90
1297;DHT22;641;48.492;9.184;2023-04-25T04:46:45;9.00;99.90
1297;DHT22;641;48.492;9.184;2023-04-25T04:49:12;8.90;99.90
1297;DHT22;641;48.492;9.184;2023-04-25T04:51:39;9.00;99.90
1297;DHT22;641;48.492;9.184;2023-04-25T04:54:05;9.00;99.90
1297;DHT22;641;48.492;9.184;2023-04-25T04:56:31;8.60;99.90
1297;DHT22;641;48.492;9.184;2023-04-25T04:58:58;8.30;99.90
1297;DHT22;641;48.492;9.184;2023-04-25T05:01:24;8.50;99.90
1297;DHT22;641;48.492;9.184;2023-04-25T05:03:50;8.60;99.90
1297;DHT22;641;48.492;9.184;2023-04-25T05:06:17;8.80;99.90
1297;DHT22;641;48.492;9.184;2023-04-25T05:08:43;8.80;99.90
1297;DHT22;641;48.492;9.184;2023-04-25T05:11:09;8.80;99.90
1297;DHT22;641;48.492;9.184;2023-04-25T05:13:35;8.90;99.90
1297;DHT22;641;48.492;9.184;2023-04-25T05:16:00;8.90;99.90
1297;DHT22;641;48.492;9.184;2023-04-25T05:18:26;9.00;99.90
1297;DHT22;641;48.492;9.184;2023-04-25T05:20:52;9.10;99.90
1297;DHT22;641;48.492;9.184;2023-04-25T05:23:18;8.60;99.90
1297;DHT22;641;48.492;9.184;2023-04-25T05:25:44;8.80;99.90
1297;DHT22;641;48.492;9.184;2023-04-25T05:28:11;8.80;99.90
1297;DHT22;641;48.492;9.184;2023-04-25T05:30:37;8.80;99.90
1297;DHT22;641;48.492;9.184;2023-04-25T05:33:03;8.80;99.90
1297;DHT22;641;48.492;9.184;2023-04-25T05:35:28;8.80;99.90
1297;DHT22;641;48.492;9.184;2023-04-25T05:37:54;9.00;99.90
1297;DHT22;641;48.492;9.184;2023-04-25T05:40:20;9.00;99.90
1297;DHT22;641;48.492;9.184;2023-04-25T05:42:45;9.30;99.90
1297;DHT22;641;48.492;9.184;2023-04-25T05:45:11;9.30;99.90
1297;DHT22;641;48.492;9.184;2023-04-25T05:47:37;9.70;99.90
1297;DHT22;641;48.492;9.184;2023-04-25T05:50:02;9.70;99.90
1297;DHT22;641;48.492;9.184;2023-04-25T05:52:28;9.80;99.90
1297;DHT22;641;48.492;9.184;2023-04-25T05:54:54;9.90;99.90
1297;DHT22;641;48.492;9.184;2023-04-25T05:57:24;9.70;99.90
1297;DHT22;641;48.492;9.184;2023-04-25T05:59:51;9.70;99.90
1297;DHT22;641;48.492;9.184;2023-04-25T06:02:20;9.60;99.90
1297;DHT22;641;48.492;9.184;2023-04-25T06:04:47;9.20;99.90
1297;DHT22;641;48.492;9.184;2023-04-25T06:07:13;9.00;99.90
1297;DHT22;641;48.492;9.184;2023-04-25T06:09:39;9.00;99.90
1297;DHT22;641;48.492;9.184;2023-04-25T06:12:05;8.90;99.90
1297;DHT22;641;48.492;9.184;2023-04-25T06:14:31;8.60;99.90
1297;DHT22;641;48.492;9.184;2023-04-25T06:16:57;8.90;99.90
1297;DHT22;641;48.492;9.184;2023-04-25T06:19:22;8.70;99.90
1297;DHT22;641;48.492;9.184;2023-04-25T06:21:48;8.80;99.90
1297;DHT22;641;48.492;9.184;2023-04-25T06:24:14;8.80;99.90
1297;DHT22;641;48.492;9.184;2023-04-25T06:26:39;8.90;99.90
1297;DHT22;641;48.492;9.184;2023-04-25T06:29:05;9.00;99.90
1297;DHT22;641;48.492;9.184;2023-04-25T06:31:30;8.90;99.90
1297;DHT22;641;48.492;9.184;2023-04-25T06:33:58;9.00;99.90
1297;DHT22;641;48.492;9.184;2023-04-25T06:36:23;9.00;99.90
1297;DHT22;641;48.492;9.184;2023-04-25T06:38:51;9.00;99.90
1297;DHT22;641;48.492;9.184;2023-04-25T06:41:17;9.20;99.90
1297;DHT22;641;48.492;9.184;2023-04-25T06:43:44;9.10;99.90
1297;DHT22;641;48.492;9.184;2023-04-25T06:46:09;8.70;99.90
1297;DHT22;641;48.492;9.184;2023-04-25T06:48:35;8.90;99.90
1297;DHT22;641;48.492;9.184;2023-04-25T06:51:01;8.80;99.90
1297;DHT22;641;48.492;9.184;2023-04-25T06:53:26;9.00;99.90
1297;DHT22;641;48.492;9.184;2023-04-25T06:55:52;8.90;99.90
1297;DHT22;641;48.492;9.184;2023-04-25T06:58:18;8.70;99.90
1297;DHT22;641;48.492;9.184;2023-04-25T07:00:43;8.60;99.90
1297;DHT22;641;48.492;9.184;2023-04-25T07:03:09;8.90;99.90
1297;DHT22;641;48.492;9.184;2023-04-25T07:05:35;8.90;99.90
1297;DHT22;641;48.492;9.184;2023-04-25T07:08:00;9.10;99.90
1297;DHT22;641;48.492;9.184;2023-04-25T07:10:26;9.50;99.90
1297;DHT22;641;48.492;9.184;2023-04-25T07:12:51;9.10;99.90
1297;DHT22;641;48.492;9.184;2023-04-25T07:15:17;9.10;99.90
1297;DHT22;641;48.492;9.184;2023-04-25T07:17:43;8.90;99.90
1297;DHT22;641;48.492;9.184;2023-04-25T07:20:08;8.70;99.90
1297;DHT22;641;48.492;9.184;2023-04-25T07:22:35;8.70;99.90
1297;DHT22;641;48.492;9.184;2023-04-25T07:25:00;8.70;99.90
1297;DHT22;641;48.492;9.184;2023-04-25T07:27:26;8.70;99.90
1297;DHT22;641;48.492;9.184;2023-04-25T07:29:52;8.90;99.90
1297;DHT22;641;48.492;9.184;2023-04-25T07:32:18;9.30;99.90
1297;DHT22;641;48.492;9.184;2023-04-25T07:34:43;9.40;99.90
1297;DHT22;641;48.492;9.184;2023-04-25T07:37:09;9.60;99.90
1297;DHT22;641;48.492;9.184;2023-04-25T07:39:35;9.10;99.90
1297;DHT22;641;48.492;9.184;2023-04-25T07:42:01;9.10;99.90
1297;DHT22;641;48.492;9.184;2023-04-25T07:44:27;9.40;99.90
1297;DHT22;641;48.492;9.184;2023-04-25T07:46:53;9.40;99.90
1297;DHT22;641;48.492;9.184;2023-04-25T07:49:18;9.40;99.90
1297;DHT22;641;48.492;9.184;2023-04-25T07:51:44;9.60;99.90
1297;DHT22;641;48.492;9.184;2023-04-25T07:54:14;9.70;99.90
1297;DHT22;641;48.492;9.184;2023-04-25T07:56:40;9.70;99.90
1297;DHT22;641;48.492;9.184;2023-04-25T07:59:06;9.40;99.90
1297;DHT22;641;48.492;9.184;2023-04-25T08:01:33;9.30;99.90
1297;DHT22;641;48.492;9.184;2023-04-25T08:03:59;9.80;99.90
1297;DHT22;641;48.492;9.184;2023-04-25T08:06:24;9.40;99.90
1297;DHT22;641;48.492;9.184;2023-04-25T08:08:50;9.10;99.90
1297;DHT22;641;48.492;9.184;2023-04-25T08:11:16;9.30;99.90
1297;DHT22;641;48.492;9.184;2023-04-25T08:13:41;9.40;99.90
1297;DHT22;641;48.492;9.184;2023-04-25T08:16:07;9.20;99.90
1297;DHT22;641;48.492;9.184;2023-04-25T08:18:33;9.60;99.90
1297;DHT22;641;48.492;9.184;2023-04-25T08:20:58;9.70;99.90
1297;DHT22;641;48.492;9.184;2023-04-25T08:23:24;9.30;99.90
1297;DHT22;641;48.492;9.184;2023-04-25T08:25:49;9.10;99.90
1297;DHT22;641;48.492;9.184;2023-04-25T08:28:15;8.70;99.90
1297;DHT22;641;48.492;9.184;2023-04-25T08:30:40;8.70;99.90
1297;DHT22;641;48.492;9.184;2023-04-25T08:33:06;8.80;99.90
1297;DHT22;641;48.492;9.184;2023-04-25T08:35:32;8.90;99.90
1297;DHT22;641;48.492;9.184;2023-04-25T08:37:58;9.10;99.90
1297;DHT22;641;48.492;9.184;2023-04-25T08:40:27;9.20;99.90
1297;DHT22;641;48.492;9.184;2023-04-25T08:42:57;9.00;99.90
1297;DHT22;641;48.492;9.184;2023-04-25T08:45:22;9.00;99.90
1297;DHT22;641;48.492;9.184;2023-04-25T08:47:51;8.70;99.90
1297;DHT22;641;48.492;9.184;2023-04-25T08:50:17;9.00;99.90
1297;DHT22;641;48.492;9.184;2023-04-25T08:52:44;9.00;99.90
1297;DHT22;641;48.492;9.184;2023-04-25T08:55:13;9.10;99.90
1297;DHT22;641;48.492;9.184;2023-04-25T08:57:41;9.10;99.90
1297;DHT22;641;48.492;9.184;2023-04-25T09:00:11;8.80;99.90
1297;DHT22;641;48.492;9.184;2023-04-25T09:02:38;8.50;99.90
1297;DHT22;641;48.492;9.184;2023-04-25T09:05:05;8.70;99.90
1297;DHT22;641;48.492;9.184;2023-04-25T09:07:32;8.90;99.90
1297;DHT22;641;48.492;9.184;2023-04-25T09:09:58;9.10;99.90
1297;DHT22;641;48.492;9.184;2023-04-25T09:12:29;9.10;99.90
1297;DHT22;641;48.492;9.184;2023-04-25T09:15:10;9.30;99.90
1297;DHT22;641;48.492;9.184;2023-04-25T09:17:36;9.00;99.90
1297;DHT22;641;48.492;9.184;2023-04-25T09:27:05;9.00;99.90
1297;DHT22;641;48.492;9.184;2023-04-25T09:29:32;8.70;99.90
1297;DHT22;641;48.492;9.184;2023-04-25T09:32:11;8.40;99.90
1297;DHT22;641;48.492;9.184;2023-04-25T09:34:46;8.40;99.90
1297;DHT22;641;48.492;9.184;2023-04-25T09:37:19;8.40;99.90
1297;DHT22;641;48.492;9.184;2023-04-25T09:39:48;8.40;99.90
1297;DHT22;641;48.492;9.184;2023-04-25T09:42:16;8.30;99.90
1297;DHT22;641;48.492;9.184;2023-04-25T09:44:45;8.30;99.90
1297;DHT22;641;48.492;9.184;2023-04-25T09:47:15;8.00;99.90
1297;DHT22;641;48.492;9.184;2023-04-25T09:49:43;7.70;99.90
1297;DHT22;641;48.492;9.184;2023-04-25T09:52:21;7.30;99.90
1297;DHT22;641;48.492;9.184;2023-04-25T09:54:50;8.10;99.90
1297;DHT22;641;48.492;9.184;2023-04-25T09:57:23;8.00;99.90
1297;DHT22;641;48.492;9.184;2023-04-25T09:59:52;8.00;99.90
1297;DHT22;641;48.492;9.184;2023-04-25T10:02:20;8.20;99.90
